Ana Sayfa
METAR-TAF:

METAR-TAF

Havaalanları :

Kimberley, Güney Afrika

Enlem: 28-48S, Boylam: 024-46E, yükseklik: 1198 m

Güncel hava durumu gözlemi

Rapor saat 03:00 UTC de 38 dakika önce yapıldı.
Rüzgar kuzeydan 6 kt
Sıcaklık 15°C
Nem 31%
Basınç 1021 hPa
Görüş mesafesi 10 km veya daha fazla
1500 m altında bulut yok ve kümülonimbus yok

METAR: FAKM 180300Z 01006KT CAVOK 15/M02 Q1021

Saat: 05:38 (03:38 UTC)

Tahmin

Rapor saat 00:00 UTC de 3 saat ve 38 dakika önce yapıldı.
Ayın 18'si saat 03 UTC'den ayın 18'si saat 12 UTC'ye kadar geçerli Tahmin
Rüzgar kuzey/kuzeybatıdan 8 kt
Görüş mesafesi 10 km veya daha fazla
1500 m altında bulut yok ve kümülonimbus yok
Dönüşüyor
ayın 18'si saat 09 UTC'den ayın 18'si saat 11 UTC'ye kadar
Rüzgar batıdan 10 kt

TAF: FAKM 180000Z 1803/1812 33008KT CAVOK TX33/1812Z TN15/1804Z BECMG 1809/1811 27010KT

4.000'den fazla havaalanı için hava durumu gözlemleri ve tahminleri (METAR ve TAF raporları).

Kullanılabilir istasyonlar harita üzerinde sarı ve kırmızı noktalarla gösterilir.

İstasyonun adını görmek için fareyi noktanın üzerinde gezdirin.

Sonrasında hava gözlem ve tahminlerini görmek için tıklayın.

Haritayı değiştirmek için: yaklaştırmak için siyah artı işaretli yeşil düğmeye ve uzaklaştırmak için de eksi işaretli düğmeye hızla tıklayın; bitişik haritalar için yeşil okları kullanın.


METAR-TAF: